Observations for Trim Market St
| Time | AQI | Temp °C | Hum % | Pres Pa | CO μg/m³ | H₂S μg/m³ | NO μg/m³ | NO₂ μg/m³ | O₃ μg/m³ | SO₂ μg/m³ | PM1 μg/m³ | PM2.5 μg/m³ | PM10 μg/m³ |
|---|---|---|---|---|---|---|---|---|---|---|---|---|---|
| Wednesday 26 August 2026 | |||||||||||||
| 23:43 | 3 | 17 | 80 | 2,147,483,647 | 0.28 | 0 | 2.02 | 10.79 | 51.95 | 0 | 17.81 | 21.4 | 34.62 |
| 23:41 | 3 | 17 | 80 | 2,147,483,647 | 0.33 | 0 | 2.02 | 12.76 | 53.57 | 0 | 17.81 | 21.88 | 34.65 |
| 23:40 | 3 | 17 | 80 | 2,147,483,647 | 0.46 | 0 | 2.02 | 15.57 | 52.96 | 0 | 17.81 | 19.54 | 30.72 |
| 23:37 | 3 | 17 | 80 | 2,147,483,647 | 0.28 | 0 | 2.02 | 13.9 | 55.62 | 0 | 18.53 | 20.97 | 32.47 |
| 23:36 | 3 | 17 | 80 | 2,147,483,647 | 0.27 | 0 | 2.02 | 10.48 | 54.81 | 0 | 17.1 | 21.46 | 34.2 |
| 23:34 | 3 | 17 | 80 | 2,147,483,647 | 0.3 | 0 | 2.01 | 15.08 | 57.13 | 0 | 17.81 | 20.99 | 32.52 |
| 23:25 | 3 | 17.1 | 79 | 2,147,483,647 | 0.27 | 0 | 1.99 | 11.36 | 51.63 | 0 | 18.53 | 20.11 | 31.54 |
| 23:21 | 3 | 17.1 | 79 | 2,147,483,647 | 0.25 | 0 | 1.98 | 13.37 | 55.24 | 0 | 17.81 | 20.6 | 32.16 |
| 23:20 | 3 | 17.1 | 79 | 2,147,483,647 | 0.26 | 0 | 1.98 | 9.57 | 54.7 | 0 | 15.68 | 19.18 | 30.44 |
| 23:19 | 3 | 17.1 | 79 | 2,147,483,647 | 0.25 | 0 | 1.98 | 8.97 | 50.37 | 0 | 17.81 | 20.14 | 31.04 |
| 23:18 | 3 | 17.1 | 79 | 2,147,483,647 | 0.24 | 0 | 1.98 | 9.42 | 55.55 | 0 | 17.1 | 20.14 | 31.04 |
| 23:17 | 3 | 17.2 | 79 | 2,147,483,647 | 0.24 | 0 | 1.97 | 8.79 | 55.22 | 0 | 16.39 | 20.62 | 32.21 |
| 23:16 | 3 | 17.2 | 79 | 2,147,483,647 | 0.24 | 0 | 1.97 | 10.54 | 57.57 | 0 | 15.68 | 18.73 | 29.34 |
| 23:15 | 3 | 17.2 | 79 | 2,147,483,647 | 0.25 | 0 | 1.97 | 12.7 | 55.36 | 0 | 17.1 | 21.58 | 33.96 |
| 23:14 | 3 | 17.2 | 79 | 2,147,483,647 | 0.25 | 0 | 1.96 | 18.79 | 47.7 | 0 | 16.39 | 20.64 | 32.26 |
| 23:13 | 3 | 17.2 | 79 | 2,147,483,647 | 0.25 | 0 | 1.96 | 19.28 | 52.69 | 0 | 14.96 | 18.28 | 28.83 |
| 23:12 | 3 | 17.2 | 79 | 2,147,483,647 | 0.22 | 0 | 1.96 | 10.53 | 59.54 | 0 | 17.81 | 20.18 | 31.71 |
| 23:11 | 3 | 17.3 | 78 | 2,147,483,647 | 0.24 | 0 | 1.95 | 10.44 | 59.11 | 0 | 15.68 | 18.77 | 29.43 |
| 23:10 | 3 | 17.3 | 78 | 2,147,483,647 | 0.23 | 0 | 1.95 | 8.98 | 54.05 | 0 | 17.81 | 20.67 | 31.18 |
| 23:09 | 3 | 17.3 | 78 | 2,147,483,647 | 0.23 | 0 | 1.96 | 14.21 | 58.02 | 0 | 14.96 | 18.3 | 29.45 |